Time;durP1;ratioP1;P1;durP2;ratioP2;P2;SDS_P1;SDS_P2;PMS_P1;PMS_P2;Temp;Humidity;BMP_temperature;BMP_pressure;BME280_temperature;BME280_humidity;BME280_pressure;Samples;Min_cycle;Max_cycle;Signal;HPM_P1;HPM_P2
2021/04/23 19:41:41;;;;;;;24.63;18.50;;;;;;;10.04;86.79;99628.19;1797901;77;28119;-78
2021/04/23 19:44:08;;;;;;;26.80;18.32;;;;;;;10.00;86.72;99629.80;1724664;81;21159;-81
2021/04/23 19:46:37;;;;;;;26.37;17.60;;;;;;;9.98;86.88;99625.68;1779773;80;21467;-82
2021/04/23 19:49:07;;;;;;;22.17;15.25;;;;;;;9.97;86.69;99622.66;1788977;79;21138;-82
2021/04/23 19:51:39;;;;;;;21.00;13.95;;;;;;;9.93;86.65;99619.63;1785690;79;21093;-86
2021/04/23 19:54:13;;;;;;;22.65;15.13;;;;;;;9.92;86.44;99615.23;1755645;80;21199;-87
2021/04/23 19:56:42;;;;;;;19.52;13.43;;;;;;;9.91;86.27;99609.51;1707021;82;21348;-86
2021/04/23 19:59:10;;;;;;;17.67;12.98;;;;;;;9.89;86.24;99608.92;1750996;81;21153;-82
2021/04/23 20:01:38;;;;;;;22.55;14.03;;;;;;;9.89;86.47;99608.92;1754536;81;21140;-81
2021/04/23 20:04:06;;;;;;;;;;;;;;;9.88;86.59;99599.63;1720594;82;21173;-81
2021/04/23 20:06:34;;;;;;;17.90;12.03;;;;;;;9.86;86.20;99597.16;1739521;82;20227;-81
2021/04/23 20:09:03;;;;;;;17.05;12.15;;;;;;;9.83;85.96;99594.11;1740437;81;21116;-81
2021/04/23 20:11:31;;;;;;;18.20;11.83;;;;;;;9.82;86.08;99597.37;1751724;80;21152;-81
2021/04/23 20:14:01;;;;;;;16.87;12.47;;;;;;;9.82;86.17;99591.08;1749721;81;21549;-80
2021/04/23 20:16:29;;;;;;;17.27;11.80;;;;;;;9.82;86.20;99584.25;1749321;81;21152;-87
2021/04/23 20:18:59;;;;;;;16.27;12.00;;;;;;;9.80;86.28;99581.79;1753820;78;21628;-88
2021/04/23 20:21:27;;;;;;;19.20;12.13;;;;;;;9.80;86.34;99576.33;1741164;81;21108;-84
2021/04/23 20:23:54;;;;;;;19.35;12.50;;;;;;;9.80;86.49;99568.66;1730915;83;21166;-83
2021/04/23 20:26:22;;;;;;;15.70;12.18;;;;;;;9.77;86.56;99564.54;1747143;81;21195;-88
2021/04/23 20:28:55;;;;;;;19.35;12.20;;;;;;;9.76;86.70;99561.55;1753716;82;21126;-83
2021/04/23 20:31:20;;;;;;;15.80;12.10;;;;;;;9.75;86.85;99559.05;1750987;81;21169;-81
2021/04/23 20:33:48;;;;;;;17.82;12.75;;;;;;;9.74;87.17;99554.13;1752545;81;21136;-86
2021/04/23 20:36:17;;;;;;;21.73;14.43;;;;;;;9.73;87.35;99542.92;1718398;82;21141;-81
2021/04/23 20:38:45;;;;;;;21.52;13.93;;;;;;;9.72;87.59;99538.53;1749861;82;21548;-78
2021/04/23 20:41:13;;;;;;;21.53;14.50;;;;;;;9.71;87.82;99531.98;1720639;82;21255;-78
2021/04/23 20:43:41;;;;;;;19.95;14.05;;;;;;;9.70;87.91;99534.41;1741873;80;21187;-90
2021/04/23 20:46:09;;;;;;;18.57;14.13;;;;;;;9.68;88.01;99531.13;1738604;81;21163;-78
2021/04/23 20:48:37;;;;;;;19.85;14.30;;;;;;;9.67;88.32;99524.00;1748117;81;21160;-79
2021/04/23 20:51:05;;;;;;;19.92;14.75;;;;;;;9.66;88.56;99521.00;1748684;81;21517;-78
2021/04/23 20:53:33;;;;;;;22.37;16.07;;;;;;;9.65;88.86;99522.91;1753890;80;21584;-78
2021/04/23 20:56:01;;;;;;;21.85;16.45;;;;;;;9.62;88.91;99510.30;1738872;81;21157;-78
2021/04/23 20:58:29;;;;;;;24.37;17.10;;;;;;;9.61;89.20;99513.59;1735560;82;21622;-80
2021/04/23 21:00:57;;;;;;;26.35;18.98;;;;;;;9.58;89.34;99508.11;1749785;81;21157;-80
2021/04/23 21:03:25;;;;;;;27.80;20.48;;;;;;;9.57;89.52;99511.91;1758678;81;21180;-78
2021/04/23 21:05:53;;;;;;;29.25;20.92;;;;;;;9.54;89.69;99502.86;1758582;81;21215;-79
2021/04/23 21:08:21;;;;;;;;;;;;;;;9.53;89.94;99504.50;1731547;82;21176;-81
2021/04/23 21:10:48;;;;;;;33.87;24.37;;;;;;;9.52;90.18;99503.67;1746415;82;20523;-82
2021/04/23 21:13:16;;;;;;;36.93;26.00;;;;;;;9.50;90.41;99501.75;1729751;80;21440;-83
2021/04/23 21:15:44;;;;;;;39.13;27.10;;;;;;;9.48;90.55;99497.09;1755596;80;21176;-83
2021/04/23 21:18:12;;;;;;;41.65;28.38;;;;;;;9.48;90.72;99499.83;1731862;81;21120;-78
2021/04/23 21:20:44;;;;;;;38.13;28.38;;;;;;;9.46;90.92;99486.14;1729092;82;21272;-76
2021/04/23 21:23:12;;;;;;;37.93;28.98;;;;;;;9.45;91.05;99479.85;1727857;81;21231;-85
2021/04/23 21:25:40;;;;;;;40.28;29.50;;;;;;;9.44;91.25;99471.36;1738535;81;21201;-84
2021/04/23 21:28:08;;;;;;;40.25;29.07;;;;;;;9.45;91.36;99473.56;1734796;82;21275;-84
2021/04/23 21:30:36;;;;;;;42.58;30.95;;;;;;;9.45;91.41;99469.45;1737169;82;21600;-82
2021/04/23 21:33:04;;;;;;;44.23;32.03;;;;;;;9.43;91.51;99467.00;1732484;82;21615;-83
2021/04/23 21:35:32;;;;;;;41.35;29.20;;;;;;;9.42;91.40;99453.59;1741290;82;21596;-81
2021/04/23 21:38:00;;;;;;;;;;;;;;;9.41;91.46;99454.13;1694364;82;21164;-83
2021/04/23 21:40:28;;;;;;;36.70;24.92;;;;;;;9.38;91.40;99449.20;1700734;83;20188;-82
2021/04/23 21:42:56;;;;;;;31.23;23.57;;;;;;;9.37;91.53;99450.28;1715148;83;21199;-79
2021/04/23 21:45:24;;;;;;;34.35;23.67;;;;;;;9.33;92.01;99436.87;1693826;82;21259;-82
2021/04/23 21:47:52;;;;;;;;;;;;;;;9.33;92.01;99436.87;1709609;83;21155;-81
2021/04/23 21:50:19;;;;;;;28.92;20.72;;;;;;;9.34;91.65;99434.41;1724406;82;20188;-80
2021/04/23 21:52:47;;;;;;;28.73;20.25;;;;;;;9.32;91.66;99431.12;1755658;81;21160;-80
2021/04/23 21:55:15;;;;;;;24.75;18.42;;;;;;;9.32;91.62;99433.84;1711746;82;21702;-79
2021/04/23 21:57:43;;;;;;;23.12;17.15;;;;;;;9.31;91.63;99429.45;1712860;82;21153;-81
2021/04/23 22:00:15;;;;;;;21.57;15.40;;;;;;;9.30;91.53;99423.73;1722406;82;21156;-80
2021/04/23 22:02:43;;;;;;;23.22;13.72;;;;;;;9.27;91.40;99418.78;1720957;82;21223;-79
2021/04/23 22:05:11;;;;;;;20.68;14.20;;;;;;;9.27;91.21;99420.69;1736404;82;21172;-79
2021/04/23 22:07:43;;;;;;;16.23;11.73;;;;;;;9.27;91.26;99424.25;1709031;82;21174;-79
2021/04/23 22:10:12;;;;;;;17.15;12.33;;;;;;;9.25;90.90;99425.05;1695666;82;21180;-81
2021/04/23 22:12:40;;;;;;;16.93;11.50;;;;;;;9.23;90.89;99417.67;1757801;81;21618;-79
2021/04/23 22:15:09;;;;;;;12.58;9.28;;;;;;;9.23;90.83;99417.67;1753035;81;21129;-80
2021/04/23 22:17:38;;;;;;;12.10;9.15;;;;;;;9.21;90.50;99414.92;1712605;84;21248;-79
2021/04/23 22:20:08;;;;;;;12.95;8.90;;;;;;;9.18;90.32;99412.70;1686486;85;21184;-81
2021/04/23 22:22:37;;;;;;;7.87;4.60;;;;;;;9.16;90.07;99436.15;1755424;82;21153;-79
2021/04/23 22:25:09;;;;;;;4.47;2.55;;;;;;;8.90;86.74;99450.09;1708983;81;21367;-78
2021/04/23 22:27:36;;;;;;;4.72;2.75;;;;;;;8.43;85.80;99448.18;1712954;82;21124;-80
2021/04/23 22:30:08;;;;;;;4.67;2.55;;;;;;;8.19;86.98;99457.96;1707008;83;21203;-79
2021/04/23 22:32:36;;;;;;;5.17;2.55;;;;;;;7.98;86.80;99465.56;1726288;82;21594;-78
2021/04/23 22:35:05;;;;;;;4.35;2.50;;;;;;;7.86;87.17;99472.19;1715265;83;21155;-79
2021/04/23 22:37:36;;;;;;;6.55;2.17;;;;;;;7.73;87.69;99473.89;1736628;82;21156;-80
2021/04/23 22:40:07;;;;;;;6.00;2.33;;;;;;;7.48;86.32;99475.15;1746168;81;21162;-79
2021/04/23 22:42:36;;;;;;;3.90;1.95;;;;;;;7.27;85.54;99492.73;1754807;81;21148;-81
2021/04/23 22:45:06;;;;;;;4.72;2.42;;;;;;;7.00;85.02;99489.81;1721500;81;21342;-79
2021/04/23 22:47:36;;;;;;;4.05;2.10;;;;;;;6.82;85.72;99490.83;1732522;81;21137;-78
2021/04/23 22:50:05;;;;;;;6.75;2.40;;;;;;;6.69;85.72;99488.92;1756827;81;21132;-80
2021/04/23 22:52:33;;;;;;;5.55;2.15;;;;;;;6.58;86.29;99497.41;1737818;81;21137;-79
2021/04/23 22:55:12;;;;;;;5.67;2.55;;;;;;;6.45;86.58;99488.19;1752058;78;21180;-79
2021/04/23 22:57:40;;;;;;;5.33;2.70;;;;;;;6.37;87.46;99495.35;1735394;82;21223;-80
2021/04/23 23:00:13;;;;;;;7.60;2.65;;;;;;;6.32;87.86;99491.17;1721548;82;21595;-79
2021/04/23 23:02:40;;;;;;;6.15;2.37;;;;;;;6.21;87.00;99492.84;1735393;82;21199;-82
2021/04/23 23:05:10;;;;;;;4.83;2.17;;;;;;;6.16;87.74;99496.80;1758416;80;21136;-78
2021/04/23 23:07:39;;;;;;;6.20;2.60;;;;;;;6.09;87.28;99492.03;1755442;82;21140;-81
2021/04/23 23:10:10;;;;;;;6.00;2.70;;;;;;;5.99;87.97;99515.42;1711439;81;21473;-79
2021/04/23 23:12:39;;;;;;;5.12;2.40;;;;;;;5.83;86.69;99505.22;1737711;82;21462;-80
2021/04/23 23:15:08;;;;;;;5.83;2.33;;;;;;;5.72;86.84;99513.13;1716104;82;21169;-79
2021/04/23 23:17:36;;;;;;;6.78;2.20;;;;;;;5.64;86.17;99506.69;1702764;84;21177;-78
2021/04/23 23:20:06;;;;;;;4.17;2.07;;;;;;;5.56;86.40;99511.13;1710887;82;21206;-80
2021/04/23 23:22:33;;;;;;;6.03;1.90;;;;;;;5.52;86.57;99505.85;1747118;82;21431;-77
2021/04/23 23:25:01;;;;;;;6.23;2.30;;;;;;;5.45;85.84;99505.66;1696156;82;21433;-77
2021/04/23 23:27:30;;;;;;;7.85;2.15;;;;;;;5.39;86.51;99512.05;1735625;82;21332;-81
2021/04/23 23:29:58;;;;;;;5.03;2.47;;;;;;;5.32;86.99;99522.15;1703954;82;21600;-81
2021/04/23 23:32:25;;;;;;;5.97;2.20;;;;;;;5.25;86.64;99530.41;1737258;82;21189;-78
2021/04/23 23:34:53;;;;;;;5.70;2.65;;;;;;;5.21;86.87;99522.97;1736465;82;21153;-77
2021/04/23 23:37:21;;;;;;;4.62;2.45;;;;;;;5.16;86.83;99523.67;1737589;82;21169;-83
2021/04/23 23:39:49;;;;;;;6.47;2.80;;;;;;;5.12;87.17;99530.59;1736586;82;21156;-76
2021/04/23 23:42:17;;;;;;;5.53;2.67;;;;;;;5.11;87.34;99534.35;1732861;82;21129;-84
2021/04/23 23:44:45;;;;;;;6.00;2.62;;;;;;;5.16;87.33;99537.23;1732817;82;21303;-78
2021/04/23 23:47:13;;;;;;;8.20;3.00;;;;;;;5.18;87.03;99538.34;1724057;82;21160;-78
2021/04/23 23:49:41;;;;;;;8.73;3.00;;;;;;;5.15;86.75;99550.48;1724690;82;21170;-83
2021/04/23 23:57:40;;;;;;;7.55;3.27;;;;;;;5.05;87.42;99545.62;1801905;77;22160;-83
